sensor_id;sensor_type;location;lat;lon;timestamp;temperature;humidity
34768;DHT22;21755;43.608;1.236;2022-12-18T00:01:49;5.50;99.90
34768;DHT22;21755;43.608;1.236;2022-12-18T00:04:21;5.50;99.90
34768;DHT22;21755;43.608;1.236;2022-12-18T00:06:47;5.60;99.90
34768;DHT22;21755;43.608;1.236;2022-12-18T00:09:13;5.50;99.90
34768;DHT22;21755;43.608;1.236;2022-12-18T00:11:39;5.50;99.90
34768;DHT22;21755;43.608;1.236;2022-12-18T00:14:05;5.60;99.90
34768;DHT22;21755;43.608;1.236;2022-12-18T00:16:31;5.60;99.90
34768;DHT22;21755;43.608;1.236;2022-12-18T00:18:59;5.60;99.90
34768;DHT22;21755;43.608;1.236;2022-12-18T00:21:27;5.60;99.90
34768;DHT22;21755;43.608;1.236;2022-12-18T00:23:54;5.70;99.90
34768;DHT22;21755;43.608;1.236;2022-12-18T00:26:23;5.70;99.90
34768;DHT22;21755;43.608;1.236;2022-12-18T00:28:50;5.70;99.90
34768;DHT22;21755;43.608;1.236;2022-12-18T00:31:19;5.70;99.90
34768;DHT22;21755;43.608;1.236;2022-12-18T00:33:46;5.80;99.90
34768;DHT22;21755;43.608;1.236;2022-12-18T00:38:39;5.80;99.90
34768;DHT22;21755;43.608;1.236;2022-12-18T00:41:06;5.80;99.90
34768;DHT22;21755;43.608;1.236;2022-12-18T00:43:34;5.80;99.90
34768;DHT22;21755;43.608;1.236;2022-12-18T00:46:00;5.80;99.90
34768;DHT22;21755;43.608;1.236;2022-12-18T00:48:26;5.90;99.90
34768;DHT22;21755;43.608;1.236;2022-12-18T00:50:52;5.90;99.90
34768;DHT22;21755;43.608;1.236;2022-12-18T00:53:18;5.90;99.90
34768;DHT22;21755;43.608;1.236;2022-12-18T00:55:45;5.90;99.90
34768;DHT22;21755;43.608;1.236;2022-12-18T00:58:13;5.90;99.90
34768;DHT22;21755;43.608;1.236;2022-12-18T01:00:39;5.90;99.90
34768;DHT22;21755;43.608;1.236;2022-12-18T01:03:05;5.90;99.90
34768;DHT22;21755;43.608;1.236;2022-12-18T01:05:32;6.00;99.90
34768;DHT22;21755;43.608;1.236;2022-12-18T01:07:58;6.00;99.90
34768;DHT22;21755;43.608;1.236;2022-12-18T01:10:25;6.00;99.90
34768;DHT22;21755;43.608;1.236;2022-12-18T01:12:51;6.00;99.90
34768;DHT22;21755;43.608;1.236;2022-12-18T01:15:18;6.00;99.90
34768;DHT22;21755;43.608;1.236;2022-12-18T01:17:44;6.00;99.90
34768;DHT22;21755;43.608;1.236;2022-12-18T01:20:12;6.00;99.90
34768;DHT22;21755;43.608;1.236;2022-12-18T01:22:38;6.00;99.90
34768;DHT22;21755;43.608;1.236;2022-12-18T01:25:05;6.00;99.90
34768;DHT22;21755;43.608;1.236;2022-12-18T01:27:32;6.00;99.90
34768;DHT22;21755;43.608;1.236;2022-12-18T01:29:58;6.00;99.90
34768;DHT22;21755;43.608;1.236;2022-12-18T01:32:24;6.10;99.90
34768;DHT22;21755;43.608;1.236;2022-12-18T01:34:50;6.10;99.90
34768;DHT22;21755;43.608;1.236;2022-12-18T01:37:16;6.10;99.90
34768;DHT22;21755;43.608;1.236;2022-12-18T01:39:42;6.10;99.90
34768;DHT22;21755;43.608;1.236;2022-12-18T01:42:13;6.10;99.90
34768;DHT22;21755;43.608;1.236;2022-12-18T01:45:00;6.10;99.90
34768;DHT22;21755;43.608;1.236;2022-12-18T01:47:55;6.10;99.90
34768;DHT22;21755;43.608;1.236;2022-12-18T01:50:34;6.10;99.90
34768;DHT22;21755;43.608;1.236;2022-12-18T01:53:21;6.20;99.90
34768;DHT22;21755;43.608;1.236;2022-12-18T01:55:53;6.20;99.90
34768;DHT22;21755;43.608;1.236;2022-12-18T01:58:32;6.20;99.90
34768;DHT22;21755;43.608;1.236;2022-12-18T02:01:01;6.20;99.90
34768;DHT22;21755;43.608;1.236;2022-12-18T02:03:27;6.20;99.90
34768;DHT22;21755;43.608;1.236;2022-12-18T02:05:59;6.20;99.90
34768;DHT22;21755;43.608;1.236;2022-12-18T02:08:32;6.10;99.90
34768;DHT22;21755;43.608;1.236;2022-12-18T02:11:14;6.10;99.90
34768;DHT22;21755;43.608;1.236;2022-12-18T02:17:19;6.10;99.90
34768;DHT22;21755;43.608;1.236;2022-12-18T02:20:01;6.10;99.90
34768;DHT22;21755;43.608;1.236;2022-12-18T02:25:21;6.00;99.90
34768;DHT22;21755;43.608;1.236;2022-12-18T02:27:51;6.00;99.90
34768;DHT22;21755;43.608;1.236;2022-12-18T02:30:18;5.90;99.90
34768;DHT22;21755;43.608;1.236;2022-12-18T02:32:48;5.90;99.90
34768;DHT22;21755;43.608;1.236;2022-12-18T02:35:22;5.90;99.90
34768;DHT22;21755;43.608;1.236;2022-12-18T02:37:50;5.90;99.90
34768;DHT22;21755;43.608;1.236;2022-12-18T02:40:19;5.80;99.90
34768;DHT22;21755;43.608;1.236;2022-12-18T02:42:47;5.80;99.90
34768;DHT22;21755;43.608;1.236;2022-12-18T02:45:13;5.70;99.90
34768;DHT22;21755;43.608;1.236;2022-12-18T02:47:42;5.70;99.90
34768;DHT22;21755;43.608;1.236;2022-12-18T02:50:33;5.70;99.90
34768;DHT22;21755;43.608;1.236;2022-12-18T02:56:00;5.60;99.90
34768;DHT22;21755;43.608;1.236;2022-12-18T03:01:31;5.50;99.90
34768;DHT22;21755;43.608;1.236;2022-12-18T03:04:04;5.50;99.90
34768;DHT22;21755;43.608;1.236;2022-12-18T03:06:35;5.50;99.90
34768;DHT22;21755;43.608;1.236;2022-12-18T03:09:07;5.40;99.90
34768;DHT22;21755;43.608;1.236;2022-12-18T03:11:37;5.40;99.90
34768;DHT22;21755;43.608;1.236;2022-12-18T03:14:26;5.30;99.90
34768;DHT22;21755;43.608;1.236;2022-12-18T03:16:58;5.30;99.90
34768;DHT22;21755;43.608;1.236;2022-12-18T03:19:28;5.20;99.90
34768;DHT22;21755;43.608;1.236;2022-12-18T03:21:57;5.30;99.90
34768;DHT22;21755;43.608;1.236;2022-12-18T03:24:28;5.30;99.90
34768;DHT22;21755;43.608;1.236;2022-12-18T03:27:00;5.20;99.90
34768;DHT22;21755;43.608;1.236;2022-12-18T03:29:33;5.10;99.90
34768;DHT22;21755;43.608;1.236;2022-12-18T03:32:10;5.10;99.90
34768;DHT22;21755;43.608;1.236;2022-12-18T03:34:40;5.00;99.90
34768;DHT22;21755;43.608;1.236;2022-12-18T03:37:08;5.00;99.90
34768;DHT22;21755;43.608;1.236;2022-12-18T03:39:35;5.00;99.90
34768;DHT22;21755;43.608;1.236;2022-12-18T03:44:45;4.90;99.90
34768;DHT22;21755;43.608;1.236;2022-12-18T03:47:27;4.90;99.90
34768;DHT22;21755;43.608;1.236;2022-12-18T03:50:22;4.90;99.90
34768;DHT22;21755;43.608;1.236;2022-12-18T03:53:00;4.80;99.90
34768;DHT22;21755;43.608;1.236;2022-12-18T03:55:30;4.80;99.90
34768;DHT22;21755;43.608;1.236;2022-12-18T03:57:59;4.80;99.90
34768;DHT22;21755;43.608;1.236;2022-12-18T04:00:28;4.70;99.90
34768;DHT22;21755;43.608;1.236;2022-12-18T04:02:56;4.70;99.90
34768;DHT22;21755;43.608;1.236;2022-12-18T04:05:25;4.70;99.90
34768;DHT22;21755;43.608;1.236;2022-12-18T04:07:53;4.60;99.90
34768;DHT22;21755;43.608;1.236;2022-12-18T04:10:20;4.60;99.90
34768;DHT22;21755;43.608;1.236;2022-12-18T04:12:46;4.60;99.90
34768;DHT22;21755;43.608;1.236;2022-12-18T04:15:12;4.60;99.90
34768;DHT22;21755;43.608;1.236;2022-12-18T04:17:39;4.50;99.90
34768;DHT22;21755;43.608;1.236;2022-12-18T04:20:08;4.50;99.90
34768;DHT22;21755;43.608;1.236;2022-12-18T04:22:34;4.50;99.90
34768;DHT22;21755;43.608;1.236;2022-12-18T04:25:01;4.40;99.90
34768;DHT22;21755;43.608;1.236;2022-12-18T04:27:26;4.50;99.90
34768;DHT22;21755;43.608;1.236;2022-12-18T04:29:52;4.40;99.90
34768;DHT22;21755;43.608;1.236;2022-12-18T04:32:18;4.40;99.90
34768;DHT22;21755;43.608;1.236;2022-12-18T04:34:44;4.40;99.90
34768;DHT22;21755;43.608;1.236;2022-12-18T04:37:10;4.40;99.90
34768;DHT22;21755;43.608;1.236;2022-12-18T04:39:36;4.40;99.90
34768;DHT22;21755;43.608;1.236;2022-12-18T04:42:02;4.40;99.90
34768;DHT22;21755;43.608;1.236;2022-12-18T04:44:28;4.40;99.90
34768;DHT22;21755;43.608;1.236;2022-12-18T04:46:54;4.40;99.90
34768;DHT22;21755;43.608;1.236;2022-12-18T04:49:21;4.40;99.90
34768;DHT22;21755;43.608;1.236;2022-12-18T04:51:47;4.40;99.90
34768;DHT22;21755;43.608;1.236;2022-12-18T04:54:13;4.40;99.90
34768;DHT22;21755;43.608;1.236;2022-12-18T04:56:39;4.30;99.90
34768;DHT22;21755;43.608;1.236;2022-12-18T04:59:05;4.30;99.90
34768;DHT22;21755;43.608;1.236;2022-12-18T05:01:31;4.30;99.90
34768;DHT22;21755;43.608;1.236;2022-12-18T05:03:57;4.20;99.90
34768;DHT22;21755;43.608;1.236;2022-12-18T05:06:23;4.20;99.90
34768;DHT22;21755;43.608;1.236;2022-12-18T05:08:48;4.20;99.90
34768;DHT22;21755;43.608;1.236;2022-12-18T05:11:15;4.20;99.90
34768;DHT22;21755;43.608;1.236;2022-12-18T05:13:44;4.20;99.90
34768;DHT22;21755;43.608;1.236;2022-12-18T05:16:11;4.20;99.90
34768;DHT22;21755;43.608;1.236;2022-12-18T05:18:38;4.20;99.90
34768;DHT22;21755;43.608;1.236;2022-12-18T05:21:04;4.10;99.90
34768;DHT22;21755;43.608;1.236;2022-12-18T05:23:30;4.10;99.90
34768;DHT22;21755;43.608;1.236;2022-12-18T05:25:59;4.10;99.90
34768;DHT22;21755;43.608;1.236;2022-12-18T05:28:27;4.10;99.90
34768;DHT22;21755;43.608;1.236;2022-12-18T05:30:56;4.00;99.90
34768;DHT22;21755;43.608;1.236;2022-12-18T05:33:24;4.10;99.90
34768;DHT22;21755;43.608;1.236;2022-12-18T05:35:53;4.00;99.90
34768;DHT22;21755;43.608;1.236;2022-12-18T05:38:21;4.00;99.90
34768;DHT22;21755;43.608;1.236;2022-12-18T05:40:51;3.90;99.90
34768;DHT22;21755;43.608;1.236;2022-12-18T05:43:18;3.90;99.90
34768;DHT22;21755;43.608;1.236;2022-12-18T05:45:45;3.90;99.90
34768;DHT22;21755;43.608;1.236;2022-12-18T05:48:12;3.90;99.90
34768;DHT22;21755;43.608;1.236;2022-12-18T05:50:40;3.90;99.90
34768;DHT22;21755;43.608;1.236;2022-12-18T05:53:07;3.90;99.90
34768;DHT22;21755;43.608;1.236;2022-12-18T05:55:38;3.80;99.90
34768;DHT22;21755;43.608;1.236;2022-12-18T05:58:05;3.80;99.90
34768;DHT22;21755;43.608;1.236;2022-12-18T06:00:33;3.80;99.90
34768;DHT22;21755;43.608;1.236;2022-12-18T06:03:00;3.80;99.90
34768;DHT22;21755;43.608;1.236;2022-12-18T06:05:26;3.80;99.90
34768;DHT22;21755;43.608;1.236;2022-12-18T06:07:53;3.70;99.90
34768;DHT22;21755;43.608;1.236;2022-12-18T06:10:18;3.80;99.90
34768;DHT22;21755;43.608;1.236;2022-12-18T06:12:44;3.70;99.90
34768;DHT22;21755;43.608;1.236;2022-12-18T06:15:11;3.70;99.90
34768;DHT22;21755;43.608;1.236;2022-12-18T06:17:37;3.60;99.90
34768;DHT22;21755;43.608;1.236;2022-12-18T06:20:04;3.60;99.90
34768;DHT22;21755;43.608;1.236;2022-12-18T06:22:32;3.50;99.90
34768;DHT22;21755;43.608;1.236;2022-12-18T06:24:58;3.50;99.90
34768;DHT22;21755;43.608;1.236;2022-12-18T06:27:25;3.60;99.90
34768;DHT22;21755;43.608;1.236;2022-12-18T06:29:50;3.60;99.90
34768;DHT22;21755;43.608;1.236;2022-12-18T06:32:16;3.50;99.90
34768;DHT22;21755;43.608;1.236;2022-12-18T06:34:42;3.50;99.90
34768;DHT22;21755;43.608;1.236;2022-12-18T06:37:08;3.50;99.90
34768;DHT22;21755;43.608;1.236;2022-12-18T06:39:34;3.40;99.90
34768;DHT22;21755;43.608;1.236;2022-12-18T06:42:00;3.40;99.90
34768;DHT22;21755;43.608;1.236;2022-12-18T06:44:26;3.40;99.90
34768;DHT22;21755;43.608;1.236;2022-12-18T06:46:52;3.30;99.90
34768;DHT22;21755;43.608;1.236;2022-12-18T06:49:18;3.30;99.90
34768;DHT22;21755;43.608;1.236;2022-12-18T06:51:44;3.30;99.90
34768;DHT22;21755;43.608;1.236;2022-12-18T06:54:10;3.40;99.90
34768;DHT22;21755;43.608;1.236;2022-12-18T06:56:36;3.30;99.90
34768;DHT22;21755;43.608;1.236;2022-12-18T06:59:01;3.30;99.90
34768;DHT22;21755;43.608;1.236;2022-12-18T07:01:27;3.30;99.90
34768;DHT22;21755;43.608;1.236;2022-12-18T07:03:55;3.30;99.90
34768;DHT22;21755;43.608;1.236;2022-12-18T07:06:24;3.30;99.90
34768;DHT22;21755;43.608;1.236;2022-12-18T07:08:52;3.20;99.90
34768;DHT22;21755;43.608;1.236;2022-12-18T07:11:19;3.30;99.90
34768;DHT22;21755;43.608;1.236;2022-12-18T07:13:45;3.20;99.90
34768;DHT22;21755;43.608;1.236;2022-12-18T07:16:14;3.20;99.90
34768;DHT22;21755;43.608;1.236;2022-12-18T07:18:40;3.20;99.90
34768;DHT22;21755;43.608;1.236;2022-12-18T07:21:08;3.10;99.90
34768;DHT22;21755;43.608;1.236;2022-12-18T07:23:35;3.10;99.90
34768;DHT22;21755;43.608;1.236;2022-12-18T07:26:06;3.10;99.90
34768;DHT22;21755;43.608;1.236;2022-12-18T07:28:33;3.10;99.90
34768;DHT22;21755;43.608;1.236;2022-12-18T07:31:07;3.10;99.90
34768;DHT22;21755;43.608;1.236;2022-12-18T07:33:34;3.20;99.90
34768;DHT22;21755;43.608;1.236;2022-12-18T07:36:01;3.10;99.90
34768;DHT22;21755;43.608;1.236;2022-12-18T07:38:27;3.10;99.90
34768;DHT22;21755;43.608;1.236;2022-12-18T07:40:52;3.10;99.90
34768;DHT22;21755;43.608;1.236;2022-12-18T07:43:18;3.10;99.90
34768;DHT22;21755;43.608;1.236;2022-12-18T07:45:44;3.10;99.90
34768;DHT22;21755;43.608;1.236;2022-12-18T07:48:10;3.20;99.90
34768;DHT22;21755;43.608;1.236;2022-12-18T07:50:37;3.20;99.90
34768;DHT22;21755;43.608;1.236;2022-12-18T07:53:03;3.20;99.90
34768;DHT22;21755;43.608;1.236;2022-12-18T07:55:31;3.20;99.90
34768;DHT22;21755;43.608;1.236;2022-12-18T07:58:00;3.30;99.90
34768;DHT22;21755;43.608;1.236;2022-12-18T08:00:26;3.30;99.90
34768;DHT22;21755;43.608;1.236;2022-12-18T08:02:52;3.40;99.90
34768;DHT22;21755;43.608;1.236;2022-12-18T08:05:18;3.40;99.90
34768;DHT22;21755;43.608;1.236;2022-12-18T08:07:46;3.50;99.90
34768;DHT22;21755;43.608;1.236;2022-12-18T08:10:12;3.50;99.90
34768;DHT22;21755;43.608;1.236;2022-12-18T08:12:38;3.60;99.90
34768;DHT22;21755;43.608;1.236;2022-12-18T08:15:05;3.60;99.90
34768;DHT22;21755;43.608;1.236;2022-12-18T08:17:31;3.70;99.90
34768;DHT22;21755;43.608;1.236;2022-12-18T08:19:57;3.80;99.90
34768;DHT22;21755;43.608;1.236;2022-12-18T08:22:23;3.80;99.90
34768;DHT22;21755;43.608;1.236;2022-12-18T08:24:49;3.90;99.90
34768;DHT22;21755;43.608;1.236;2022-12-18T08:27:14;3.90;99.90
34768;DHT22;21755;43.608;1.236;2022-12-18T08:29:40;4.00;99.90
34768;DHT22;21755;43.608;1.236;2022-12-18T08:32:06;4.00;99.90
34768;DHT22;21755;43.608;1.236;2022-12-18T08:34:32;4.00;99.90
34768;DHT22;21755;43.608;1.236;2022-12-18T08:36:58;4.10;99.90
34768;DHT22;21755;43.608;1.236;2022-12-18T08:39:24;4.20;99.90
34768;DHT22;21755;43.608;1.236;2022-12-18T08:41:50;4.30;99.90
34768;DHT22;21755;43.608;1.236;2022-12-18T08:44:34;4.30;99.90
34768;DHT22;21755;43.608;1.236;2022-12-18T08:47:03;4.40;99.90
34768;DHT22;21755;43.608;1.236;2022-12-18T08:49:29;4.50;99.90
34768;DHT22;21755;43.608;1.236;2022-12-18T08:51:56;4.60;99.90
34768;DHT22;21755;43.608;1.236;2022-12-18T08:54:26;4.70;99.90
34768;DHT22;21755;43.608;1.236;2022-12-18T08:56:52;4.80;99.90
34768;DHT22;21755;43.608;1.236;2022-12-18T08:59:18;4.90;99.90
34768;DHT22;21755;43.608;1.236;2022-12-18T09:01:45;5.00;99.90
34768;DHT22;21755;43.608;1.236;2022-12-18T09:04:12;5.10;99.90
34768;DHT22;21755;43.608;1.236;2022-12-18T09:06:39;5.20;99.90
34768;DHT22;21755;43.608;1.236;2022-12-18T09:09:06;5.30;99.90
34768;DHT22;21755;43.608;1.236;2022-12-18T09:11:33;5.40;99.90
34768;DHT22;21755;43.608;1.236;2022-12-18T09:14:00;5.60;99.90
34768;DHT22;21755;43.608;1.236;2022-12-18T09:16:28;5.70;99.90
34768;DHT22;21755;43.608;1.236;2022-12-18T09:18:58;5.90;99.90
34768;DHT22;21755;43.608;1.236;2022-12-18T09:21:34;6.10;99.90
34768;DHT22;21755;43.608;1.236;2022-12-18T09:24:00;6.20;99.90
34768;DHT22;21755;43.608;1.236;2022-12-18T09:26:26;6.40;99.90
34768;DHT22;21755;43.608;1.236;2022-12-18T09:28:53;6.60;99.90
34768;DHT22;21755;43.608;1.236;2022-12-18T09:31:21;6.70;99.90
34768;DHT22;21755;43.608;1.236;2022-12-18T09:33:48;6.90;99.90
34768;DHT22;21755;43.608;1.236;2022-12-18T09:36:15;7.10;99.90
34768;DHT22;21755;43.608;1.236;2022-12-18T09:38:42;7.30;99.90
34768;DHT22;21755;43.608;1.236;2022-12-18T09:41:21;7.40;99.90
34768;DHT22;21755;43.608;1.236;2022-12-18T09:43:52;7.50;99.90
34768;DHT22;21755;43.608;1.236;2022-12-18T09:46:28;7.60;99.90
34768;DHT22;21755;43.608;1.236;2022-12-18T09:48:59;7.60;99.90
34768;DHT22;21755;43.608;1.236;2022-12-18T09:51:30;7.80;99.90
34768;DHT22;21755;43.608;1.236;2022-12-18T09:54:05;7.90;99.90
34768;DHT22;21755;43.608;1.236;2022-12-18T09:56:40;8.10;99.90
34768;DHT22;21755;43.608;1.236;2022-12-18T09:59:30;8.20;99.90
34768;DHT22;21755;43.608;1.236;2022-12-18T10:01:57;8.40;99.90
34768;DHT22;21755;43.608;1.236;2022-12-18T10:04:24;8.50;99.90
34768;DHT22;21755;43.608;1.236;2022-12-18T10:07:26;8.60;99.90
34768;DHT22;21755;43.608;1.236;2022-12-18T10:09:58;8.70;99.90
34768;DHT22;21755;43.608;1.236;2022-12-18T10:12:32;8.80;99.90
34768;DHT22;21755;43.608;1.236;2022-12-18T10:20:49;9.00;99.90
34768;DHT22;21755;43.608;1.236;2022-12-18T10:23:39;9.00;99.90
34768;DHT22;21755;43.608;1.236;2022-12-18T10:26:11;9.10;99.90
34768;DHT22;21755;43.608;1.236;2022-12-18T10:28:39;9.10;99.90
34768;DHT22;21755;43.608;1.236;2022-12-18T10:31:07;9.10;99.90
34768;DHT22;21755;43.608;1.236;2022-12-18T10:33:38;9.10;99.90
34768;DHT22;21755;43.608;1.236;2022-12-18T10:36:04;9.10;99.90
34768;DHT22;21755;43.608;1.236;2022-12-18T10:38:32;9.10;99.90
34768;DHT22;21755;43.608;1.236;2022-12-18T10:41:02;9.10;99.90
34768;DHT22;21755;43.608;1.236;2022-12-18T10:51:23;9.20;99.90
34768;DHT22;21755;43.608;1.236;2022-12-18T10:54:18;9.20;99.90
34768;DHT22;21755;43.608;1.236;2022-12-18T10:56:45;9.30;99.90
34768;DHT22;21755;43.608;1.236;2022-12-18T10:59:16;9.30;99.90
34768;DHT22;21755;43.608;1.236;2022-12-18T11:04:17;9.30;99.90
34768;DHT22;21755;43.608;1.236;2022-12-18T11:07:07;9.40;99.90
34768;DHT22;21755;43.608;1.236;2022-12-18T11:09:35;9.40;99.90
34768;DHT22;21755;43.608;1.236;2022-12-18T11:12:03;9.40;99.90
34768;DHT22;21755;43.608;1.236;2022-12-18T11:17:19;9.50;99.90
34768;DHT22;21755;43.608;1.236;2022-12-18T11:19:55;9.50;99.90
34768;DHT22;21755;43.608;1.236;2022-12-18T11:22:28;9.50;99.90
34768;DHT22;21755;43.608;1.236;2022-12-18T11:24:56;9.60;99.90
34768;DHT22;21755;43.608;1.236;2022-12-18T11:27:23;9.60;99.90
34768;DHT22;21755;43.608;1.236;2022-12-18T11:29:50;9.60;99.90
34768;DHT22;21755;43.608;1.236;2022-12-18T11:35:42;9.70;99.90
34768;DHT22;21755;43.608;1.236;2022-12-18T11:38:20;9.70;99.90
34768;DHT22;21755;43.608;1.236;2022-12-18T11:41:45;9.80;99.90
34768;DHT22;21755;43.608;1.236;2022-12-18T11:44:50;9.70;99.90
34768;DHT22;21755;43.608;1.236;2022-12-18T11:50:05;9.80;99.90
34768;DHT22;21755;43.608;1.236;2022-12-18T11:52:38;9.80;99.90
34768;DHT22;21755;43.608;1.236;2022-12-18T11:55:16;9.90;99.90
34768;DHT22;21755;43.608;1.236;2022-12-18T11:58:11;9.90;99.90
34768;DHT22;21755;43.608;1.236;2022-12-18T12:00:49;10.00;99.90
34768;DHT22;21755;43.608;1.236;2022-12-18T12:09:03;10.10;99.90
34768;DHT22;21755;43.608;1.236;2022-12-18T12:14:35;10.20;99.90
34768;DHT22;21755;43.608;1.236;2022-12-18T12:19:44;10.20;99.90
34768;DHT22;21755;43.608;1.236;2022-12-18T12:25:01;10.30;99.90
34768;DHT22;21755;43.608;1.236;2022-12-18T12:28:05;10.30;99.90
34768;DHT22;21755;43.608;1.236;2022-12-18T12:30:43;10.30;99.90
34768;DHT22;21755;43.608;1.236;2022-12-18T12:38:54;10.40;99.90
34768;DHT22;21755;43.608;1.236;2022-12-18T12:41:24;10.40;99.90
34768;DHT22;21755;43.608;1.236;2022-12-18T12:44:37;10.50;99.90
34768;DHT22;21755;43.608;1.236;2022-12-18T12:47:12;10.40;99.90
34768;DHT22;21755;43.608;1.236;2022-12-18T12:49:40;10.50;99.90
34768;DHT22;21755;43.608;1.236;2022-12-18T12:52:12;10.60;99.90
34768;DHT22;21755;43.608;1.236;2022-12-18T12:54:40;10.50;99.90
34768;DHT22;21755;43.608;1.236;2022-12-18T12:57:15;10.60;99.90
34768;DHT22;21755;43.608;1.236;2022-12-18T13:07:51;10.70;99.90
34768;DHT22;21755;43.608;1.236;2022-12-18T13:13:09;10.60;99.90
34768;DHT22;21755;43.608;1.236;2022-12-18T13:20:37;10.50;99.90
34768;DHT22;21755;43.608;1.236;2022-12-18T13:23:33;10.50;99.90
34768;DHT22;21755;43.608;1.236;2022-12-18T13:34:28;10.50;99.90
34768;DHT22;21755;43.608;1.236;2022-12-18T13:39:58;10.50;99.90
34768;DHT22;21755;43.608;1.236;2022-12-18T13:48:20;10.40;99.90
34768;DHT22;21755;43.608;1.236;2022-12-18T13:50:56;10.50;99.90
34768;DHT22;21755;43.608;1.236;2022-12-18T13:53:27;10.50;99.90
34768;DHT22;21755;43.608;1.236;2022-12-18T13:55:54;10.60;99.90
34768;DHT22;21755;43.608;1.236;2022-12-18T13:58:20;10.50;99.90
34768;DHT22;21755;43.608;1.236;2022-12-18T14:00:46;10.50;99.90
34768;DHT22;21755;43.608;1.236;2022-12-18T14:03:24;10.50;99.90
34768;DHT22;21755;43.608;1.236;2022-12-18T14:05:55;10.50;99.90
34768;DHT22;21755;43.608;1.236;2022-12-18T14:08:22;10.60;99.90
34768;DHT22;21755;43.608;1.236;2022-12-18T14:10:51;10.60;99.90
34768;DHT22;21755;43.608;1.236;2022-12-18T14:13:31;10.60;99.90
34768;DHT22;21755;43.608;1.236;2022-12-18T14:16:00;10.70;99.90
34768;DHT22;21755;43.608;1.236;2022-12-18T14:21:05;10.70;99.90
34768;DHT22;21755;43.608;1.236;2022-12-18T14:23:38;10.80;99.90
34768;DHT22;21755;43.608;1.236;2022-12-18T14:26:26;10.80;99.90
34768;DHT22;21755;43.608;1.236;2022-12-18T14:28:55;10.80;99.90
34768;DHT22;21755;43.608;1.236;2022-12-18T14:31:24;10.80;99.90
34768;DHT22;21755;43.608;1.236;2022-12-18T14:33:51;10.80;99.90
34768;DHT22;21755;43.608;1.236;2022-12-18T14:36:22;10.70;99.90
34768;DHT22;21755;43.608;1.236;2022-12-18T14:38:57;10.70;99.90
34768;DHT22;21755;43.608;1.236;2022-12-18T14:41:24;10.70;99.90
34768;DHT22;21755;43.608;1.236;2022-12-18T14:43:53;10.70;99.90
34768;DHT22;21755;43.608;1.236;2022-12-18T14:46:26;10.70;99.90
34768;DHT22;21755;43.608;1.236;2022-12-18T14:48:53;10.60;99.90
34768;DHT22;21755;43.608;1.236;2022-12-18T14:51:24;10.60;99.90
34768;DHT22;21755;43.608;1.236;2022-12-18T14:54:01;10.60;99.90
34768;DHT22;21755;43.608;1.236;2022-12-18T14:56:30;10.60;99.90
34768;DHT22;21755;43.608;1.236;2022-12-18T14:59:03;10.60;99.90
34768;DHT22;21755;43.608;1.236;2022-12-18T15:01:45;10.50;99.90
34768;DHT22;21755;43.608;1.236;2022-12-18T15:04:36;10.50;99.90
34768;DHT22;21755;43.608;1.236;2022-12-18T15:09:37;10.50;99.90
34768;DHT22;21755;43.608;1.236;2022-12-18T15:12:04;10.50;99.90
34768;DHT22;21755;43.608;1.236;2022-12-18T15:14:39;10.50;99.90
34768;DHT22;21755;43.608;1.236;2022-12-18T15:17:17;10.50;99.90
34768;DHT22;21755;43.608;1.236;2022-12-18T15:19:46;10.50;99.90
34768;DHT22;21755;43.608;1.236;2022-12-18T15:24:50;10.40;99.90
34768;DHT22;21755;43.608;1.236;2022-12-18T15:27:29;10.40;99.90
34768;DHT22;21755;43.608;1.236;2022-12-18T15:30:20;10.30;99.90
34768;DHT22;21755;43.608;1.236;2022-12-18T15:32:46;10.30;99.90
34768;DHT22;21755;43.608;1.236;2022-12-18T15:35:24;10.30;99.90
34768;DHT22;21755;43.608;1.236;2022-12-18T15:37:51;10.20;99.90
34768;DHT22;21755;43.608;1.236;2022-12-18T15:40:20;10.20;99.90
34768;DHT22;21755;43.608;1.236;2022-12-18T15:42:47;10.20;99.90
34768;DHT22;21755;43.608;1.236;2022-12-18T15:45:32;10.10;99.90
34768;DHT22;21755;43.608;1.236;2022-12-18T15:47:58;10.10;99.90
34768;DHT22;21755;43.608;1.236;2022-12-18T15:50:25;10.10;99.90
34768;DHT22;21755;43.608;1.236;2022-12-18T15:52:52;10.00;99.90
34768;DHT22;21755;43.608;1.236;2022-12-18T15:55:22;10.00;99.90
34768;DHT22;21755;43.608;1.236;2022-12-18T15:58:09;10.00;99.90
34768;DHT22;21755;43.608;1.236;2022-12-18T16:00:36;10.00;99.90
34768;DHT22;21755;43.608;1.236;2022-12-18T16:03:04;9.90;99.90
34768;DHT22;21755;43.608;1.236;2022-12-18T16:05:31;9.90;99.90
34768;DHT22;21755;43.608;1.236;2022-12-18T16:07:57;9.90;99.90
34768;DHT22;21755;43.608;1.236;2022-12-18T16:10:25;9.80;99.90
34768;DHT22;21755;43.608;1.236;2022-12-18T16:12:52;9.80;99.90
34768;DHT22;21755;43.608;1.236;2022-12-18T16:15:18;9.70;99.90
34768;DHT22;21755;43.608;1.236;2022-12-18T16:17:44;9.70;99.90
34768;DHT22;21755;43.608;1.236;2022-12-18T16:20:15;9.60;99.90
34768;DHT22;21755;43.608;1.236;2022-12-18T16:22:42;9.60;99.90
34768;DHT22;21755;43.608;1.236;2022-12-18T16:25:20;9.60;99.90
34768;DHT22;21755;43.608;1.236;2022-12-18T16:27:46;9.60;99.90
34768;DHT22;21755;43.608;1.236;2022-12-18T16:30:17;9.50;99.90
34768;DHT22;21755;43.608;1.236;2022-12-18T16:32:44;9.50;99.90
34768;DHT22;21755;43.608;1.236;2022-12-18T16:35:15;9.50;99.90
34768;DHT22;21755;43.608;1.236;2022-12-18T16:37:42;9.50;99.90
34768;DHT22;21755;43.608;1.236;2022-12-18T16:40:10;9.50;99.90
34768;DHT22;21755;43.608;1.236;2022-12-18T16:42:38;9.50;99.90
34768;DHT22;21755;43.608;1.236;2022-12-18T16:45:06;9.40;99.90
34768;DHT22;21755;43.608;1.236;2022-12-18T16:47:33;9.40;99.90
34768;DHT22;21755;43.608;1.236;2022-12-18T16:49:59;9.40;99.90
34768;DHT22;21755;43.608;1.236;2022-12-18T16:52:25;9.40;99.90
34768;DHT22;21755;43.608;1.236;2022-12-18T16:54:51;9.30;99.90
34768;DHT22;21755;43.608;1.236;2022-12-18T16:57:19;9.30;99.90
34768;DHT22;21755;43.608;1.236;2022-12-18T16:59:45;9.30;99.90
34768;DHT22;21755;43.608;1.236;2022-12-18T17:02:22;9.30;99.90
34768;DHT22;21755;43.608;1.236;2022-12-18T17:04:49;9.40;99.90
34768;DHT22;21755;43.608;1.236;2022-12-18T17:07:15;9.40;99.90
34768;DHT22;21755;43.608;1.236;2022-12-18T17:09:41;9.40;99.90
34768;DHT22;21755;43.608;1.236;2022-12-18T17:12:08;9.40;99.90
34768;DHT22;21755;43.608;1.236;2022-12-18T17:14:35;9.40;99.90
34768;DHT22;21755;43.608;1.236;2022-12-18T17:17:01;9.40;99.90
34768;DHT22;21755;43.608;1.236;2022-12-18T17:19:28;9.40;99.90
34768;DHT22;21755;43.608;1.236;2022-12-18T17:21:54;9.50;99.90
34768;DHT22;21755;43.608;1.236;2022-12-18T17:24:21;9.50;99.90
34768;DHT22;21755;43.608;1.236;2022-12-18T17:26:47;9.50;99.90
34768;DHT22;21755;43.608;1.236;2022-12-18T17:29:15;9.60;99.90
34768;DHT22;21755;43.608;1.236;2022-12-18T17:31:42;9.60;99.90
34768;DHT22;21755;43.608;1.236;2022-12-18T17:34:12;9.70;99.90
34768;DHT22;21755;43.608;1.236;2022-12-18T17:36:39;9.80;99.90
34768;DHT22;21755;43.608;1.236;2022-12-18T17:39:07;9.80;99.90
34768;DHT22;21755;43.608;1.236;2022-12-18T17:41:33;9.80;99.90
34768;DHT22;21755;43.608;1.236;2022-12-18T17:44:03;9.80;99.90